createdAt,value
2022-08-11T00:08:54.890Z,3.14
2022-08-11T00:20:15.055Z,3.14
2022-08-11T00:30:55.923Z,3.13
2022-08-11T00:41:57.021Z,3.13
2022-08-11T00:52:57.752Z,3.12
2022-08-11T01:03:59.721Z,3.12
2022-08-11T01:15:00.722Z,3.11
2022-08-11T01:26:01.881Z,3.11
2022-08-11T01:37:04.315Z,3.11
2022-08-11T01:48:07.176Z,3.10
2022-08-11T01:59:08.799Z,3.10
2022-08-11T02:10:08.859Z,3.10
2022-08-11T02:21:09.382Z,3.09
2022-08-11T02:32:24.727Z,3.09
2022-08-11T02:43:13.371Z,3.08
2022-08-11T02:54:07.042Z,3.07
2022-08-11T03:05:06.690Z,3.07
2022-08-11T03:16:07.559Z,3.07
2022-08-11T03:27:09.167Z,3.06
2022-08-11T03:37:53.966Z,3.05
2022-08-11T03:48:54.540Z,3.05
2022-08-11T03:59:56.169Z,3.05
2022-08-11T04:10:58.614Z,3.05
2022-08-11T04:21:57.952Z,3.05
2022-08-11T04:33:00.077Z,3.05
2022-08-11T04:44:05.768Z,3.06
2022-08-11T04:55:05.178Z,3.06
2022-08-11T05:06:04.462Z,3.07
2022-08-11T05:17:07.263Z,3.07
2022-08-11T05:28:04.124Z,3.08
2022-08-11T05:39:04.992Z,3.09
2022-08-11T05:50:05.412Z,3.10
2022-08-11T06:01:04.742Z,3.10
2022-08-11T06:12:06.385Z,3.12
2022-08-11T06:23:08.502Z,3.13
2022-08-11T06:34:09.561Z,3.15
2022-08-11T06:45:08.857Z,3.16
2022-08-11T06:56:11.279Z,3.18
2022-08-11T07:07:14.277Z,3.19
2022-08-11T07:18:12.251Z,3.21
2022-08-11T07:29:13.325Z,3.23
2022-08-11T07:40:10.041Z,3.24
2022-08-11T07:51:05.985Z,3.25
2022-08-11T08:02:06.184Z,3.27
2022-08-11T08:13:01.743Z,3.28
2022-08-11T08:24:02.479Z,3.30
2022-08-11T08:35:03.129Z,3.32
2022-08-11T08:46:04.752Z,3.33
2022-08-11T08:57:04.286Z,3.34
2022-08-11T09:07:58.406Z,3.36
2022-08-11T09:18:57.904Z,3.39
2022-08-11T09:29:57.031Z,3.34
2022-08-11T09:40:56.965Z,3.34
2022-08-11T09:52:01.998Z,3.34
2022-08-11T10:03:00.504Z,3.34
2022-08-11T10:14:33.321Z,3.34
2022-08-11T10:25:00.830Z,3.34
2022-08-11T10:35:57.772Z,3.34
2022-08-11T10:46:53.322Z,3.34
2022-08-11T10:58:04.726Z,3.34
2022-08-11T11:08:55.534Z,3.34
2022-08-11T11:19:56.376Z,3.34
2022-08-11T11:30:53.232Z,3.33
2022-08-11T11:41:52.727Z,3.34
2022-08-11T11:52:54.787Z,3.34
2022-08-11T12:03:56.885Z,3.34
2022-08-11T12:14:57.805Z,3.34
2022-08-11T12:26:23.380Z,3.34
2022-08-11T12:36:59.438Z,3.34
2022-08-11T12:48:57.316Z,3.34
2022-08-11T12:59:03.853Z,3.34
2022-08-11T13:10:02.387Z,3.34
2022-08-11T13:21:03.929Z,3.34
2022-08-11T13:31:58.905Z,3.34
2022-08-11T13:42:54.392Z,3.33
2022-08-11T13:53:48.721Z,3.34
2022-08-11T14:04:46.848Z,3.34
2022-08-11T14:15:47.588Z,3.34
2022-08-11T14:26:46.159Z,3.34
2022-08-11T14:37:43.290Z,3.33
2022-08-11T14:48:47.842Z,3.34
2022-08-11T14:59:43.186Z,3.34
2022-08-11T15:10:42.106Z,3.34
2022-08-11T15:21:38.559Z,3.33
2022-08-11T15:32:34.485Z,3.36
2022-08-11T15:43:33.945Z,3.34
2022-08-11T15:54:35.071Z,3.34
2022-08-11T16:05:46.740Z,3.34
2022-08-11T16:16:39.994Z,3.34
2022-08-11T16:27:40.678Z,3.36
2022-08-11T16:38:40.868Z,3.38
2022-08-11T16:49:38.484Z,3.36
2022-08-11T17:00:38.333Z,3.36
2022-08-11T17:11:33.070Z,3.34
2022-08-11T17:22:30.771Z,3.34
2022-08-11T17:33:22.617Z,3.32
2022-08-11T17:44:18.393Z,3.32
2022-08-11T17:55:13.523Z,3.30
2022-08-11T18:06:13.285Z,3.30
2022-08-11T18:17:09.272Z,3.29
2022-08-11T18:28:06.170Z,3.29
2022-08-11T18:39:06.812Z,3.28
2022-08-11T18:50:06.740Z,3.28
2022-08-11T19:01:08.404Z,3.28
2022-08-11T19:12:08.725Z,3.27
2022-08-11T19:23:08.437Z,3.26
2022-08-11T19:34:10.023Z,3.26
2022-08-11T19:45:03.776Z,3.25
2022-08-11T19:56:03.312Z,3.25
2022-08-11T20:07:03.735Z,3.25
2022-08-11T20:18:03.249Z,3.25
2022-08-11T20:28:59.216Z,3.24
2022-08-11T20:39:59.104Z,3.23
2022-08-11T20:50:36.511Z,3.22
2022-08-11T21:01:38.256Z,3.22
2022-08-11T21:12:36.566Z,3.22
2022-08-11T21:23:35.017Z,3.22
2022-08-11T21:34:30.385Z,3.21
2022-08-11T21:45:26.629Z,3.21
2022-08-11T21:56:27.775Z,3.21
2022-08-11T22:07:28.444Z,3.20
2022-08-11T22:18:31.291Z,3.20
2022-08-11T22:29:41.358Z,3.19
2022-08-11T22:40:38.105Z,3.19
2022-08-11T22:51:39.317Z,3.19
2022-08-11T23:02:40.053Z,3.18
2022-08-11T23:13:41.246Z,3.18
2022-08-11T23:24:38.390Z,3.18
2022-08-11T23:35:54.887Z,3.17
2022-08-11T23:46:40.801Z,3.17
2022-08-11T23:57:49.290Z,3.16
